Time;durP1;ratioP1;P1;durP2;ratioP2;P2;SDS_P1;SDS_P2;PMS_P1;PMS_P2;Temp;Humidity;BMP_temperature;BMP_pressure;BME280_temperature;BME280_humidity;BME280_pressure;Samples;Min_cycle;Max_cycle;Signal;HPM_P1;HPM_P2
2023/09/25 00:00:55;;;;;;;4.30;1.90;;;;;;;18.29;78.06;98633.09;4410634;32;20115;-77
2023/09/25 00:03:22;;;;;;;4.40;2.03;;;;;;;18.41;77.49;98632.31;4410270;32;20097;-77
2023/09/25 00:05:49;;;;;;;4.35;1.80;;;;;;;17.66;80.71;98630.16;4410017;32;20105;-77
2023/09/25 00:08:16;;;;;;;7.05;2.03;;;;;;;18.24;78.47;98635.16;4410555;32;20572;-77
2023/09/25 00:10:43;;;;;;;4.37;2.00;;;;;;;18.74;75.57;98638.88;4409998;32;20129;-77
2023/09/25 00:13:10;;;;;;;4.50;1.90;;;;;;;19.34;72.42;98643.50;4410534;32;20157;-77
2023/09/25 00:15:44;;;;;;;6.65;2.08;;;;;;;19.87;69.27;98646.78;4410244;32;20124;-77
2023/09/25 00:18:13;;;;;;;11.48;2.10;;;;;;;19.75;69.89;98647.66;4410180;32;20471;-77
2023/09/25 00:20:41;;;;;;;5.70;1.85;;;;;;;20.69;66.07;98634.72;4410310;32;20094;-78
2023/09/25 00:23:08;;;;;;;4.15;1.90;;;;;;;21.07;63.61;98647.59;4409357;32;20109;-78
2023/09/25 00:25:35;;;;;;;3.47;1.83;;;;;;;21.33;62.40;98643.81;4409855;32;20480;-78
2023/09/25 00:28:02;;;;;;;4.30;2.10;;;;;;;21.18;62.46;98637.09;4410430;32;20082;-78
2023/09/25 00:30:29;;;;;;;4.70;1.85;;;;;;;21.17;61.76;98632.81;4410318;32;20480;-77
2023/09/25 00:32:56;;;;;;;4.53;2.00;;;;;;;21.08;62.25;98636.13;4409800;32;20177;-77
2023/09/25 00:35:24;;;;;;;4.47;1.80;;;;;;;20.71;63.52;98627.56;4410137;32;20090;-78
2023/09/25 00:37:50;;;;;;;6.03;2.00;;;;;;;20.90;62.42;98621.78;4410262;32;20415;-77
2023/09/25 00:40:18;;;;;;;4.57;1.98;;;;;;;20.61;63.79;98611.69;4409836;32;20098;-77
2023/09/25 00:42:48;;;;;;;2.92;1.65;;;;;;;20.69;63.56;98603.25;4410112;32;20120;-77
2023/09/25 00:45:16;;;;;;;2.67;1.60;;;;;;;20.25;64.46;98598.66;4410263;32;20089;-77
2023/09/25 00:47:43;;;;;;;5.43;1.83;;;;;;;20.46;64.71;98605.81;4409822;32;20144;-77
2023/09/25 00:50:10;;;;;;;3.40;1.50;;;;;;;20.25;65.18;98594.25;4410201;32;20098;-77
2023/09/25 00:52:41;;;;;;;5.40;1.83;;;;;;;19.84;67.37;98590.25;4409991;32;20145;-77
2023/09/25 00:55:08;;;;;;;4.10;1.83;;;;;;;19.52;67.80;98587.28;4396221;32;20132;-77
2023/09/25 00:57:37;;;;;;;3.45;1.67;;;;;;;20.13;66.68;98587.31;4410044;32;20081;-77
2023/09/25 01:00:06;;;;;;;3.90;1.80;;;;;;;20.54;64.37;98579.03;4396181;32;20106;-77
2023/09/25 01:02:33;;;;;;;4.78;1.75;;;;;;;19.74;66.73;98583.16;4410118;32;20093;-77
2023/09/25 01:05:02;;;;;;;4.53;1.90;;;;;;;19.34;68.93;98578.09;4410149;32;20445;-77
2023/09/25 01:07:29;;;;;;;5.37;1.70;;;;;;;18.36;74.56;98576.88;4396035;32;20077;-77
2023/09/25 01:10:15;;;;;;;3.33;1.60;;;;;;;17.88;76.66;98584.37;4410016;32;20151;-77
2023/09/25 01:12:45;;;;;;;3.80;1.80;;;;;;;17.77;76.97;98578.16;4409908;32;20097;-77
2023/09/25 01:15:13;;;;;;;2.90;1.60;;;;;;;17.55;77.71;98587.31;4409602;32;20128;-77
2023/09/25 01:17:42;;;;;;;4.37;1.80;;;;;;;17.70;78.91;98584.69;4409932;32;20074;-77
2023/09/25 01:20:12;;;;;;;5.10;1.75;;;;;;;17.59;79.86;98588.78;4409938;32;20154;-77
2023/09/25 01:22:44;;;;;;;5.57;1.60;;;;;;;18.01;77.02;98589.66;4409328;32;20228;-77
2023/09/25 01:25:12;;;;;;;2.53;1.50;;;;;;;18.44;75.07;98585.06;4396156;32;20108;-77
2023/09/25 01:27:42;;;;;;;2.58;1.60;;;;;;;17.21;80.70;98590.31;4409931;32;20074;-77
2023/09/25 01:30:10;;;;;;;4.37;1.83;;;;;;;16.32;89.16;98592.09;4395943;32;20453;-77
2023/09/25 01:32:38;;;;;;;3.17;1.70;;;;;;;16.11;92.36;98584.59;4409557;32;20145;-77
2023/09/25 01:35:11;;;;;;;4.28;1.70;;;;;;;16.54;89.32;98579.50;4409264;32;20160;-77
2023/09/25 01:37:38;;;;;;;3.47;1.70;;;;;;;16.04;92.06;98569.41;4409741;32;20104;-77
2023/09/25 01:40:08;;;;;;;3.70;1.67;;;;;;;16.15;92.80;98572.22;4409749;32;20094;-77
2023/09/25 01:42:35;;;;;;;2.90;1.50;;;;;;;16.42;91.10;98578.47;4409420;32;20436;-77
2023/09/25 01:45:03;;;;;;;4.30;1.60;;;;;;;16.29;90.95;98587.91;4409612;32;20139;-77
2023/09/25 01:47:30;;;;;;;2.97;1.50;;;;;;;16.02;94.36;98592.06;4409505;32;20484;-77
2023/09/25 01:49:57;;;;;;;2.92;1.50;;;;;;;16.66;90.10;98594.41;4395551;32;20144;-77
2023/09/25 01:52:24;;;;;;;3.85;1.75;;;;;;;16.44;89.14;98589.63;4409429;32;20093;-77
2023/09/25 01:54:51;;;;;;;5.72;1.95;;;;;;;16.82;88.55;98599.63;4409582;32;20093;-77
2023/09/25 01:57:18;;;;;;;4.37;1.80;;;;;;;16.64;88.37;98596.28;4409084;32;20241;-77
2023/09/25 01:59:45;;;;;;;4.93;1.77;;;;;;;17.14;87.01;98596.84;4409343;32;20437;-77
2023/09/25 02:02:12;;;;;;;3.75;1.90;;;;;;;17.05;86.97;98604.28;4409387;32;20117;-77
2023/09/25 02:04:39;;;;;;;4.20;2.00;;;;;;;16.74;90.21;98597.47;4395331;32;20448;-77
2023/09/25 02:07:06;;;;;;;5.60;2.03;;;;;;;16.63;90.30;98596.38;4409318;32;20425;-77
2023/09/25 02:09:33;;;;;;;3.00;1.80;;;;;;;17.27;86.13;98603.00;4409277;32;20123;-77
2023/09/25 02:12:00;;;;;;;5.18;1.80;;;;;;;17.59;83.51;98604.44;4408716;32;20475;-77
2023/09/25 02:14:27;;;;;;;5.28;1.80;;;;;;;17.19;85.96;98605.22;4409281;32;20116;-77
2023/09/25 02:16:54;;;;;;;4.25;2.10;;;;;;;18.02;80.75;98598.31;4409358;32;20107;-77
2023/09/25 02:19:23;;;;;;;2.53;1.55;;;;;;;18.16;79.29;98593.88;4409250;32;20114;-77
2023/09/25 02:21:50;;;;;;;4.87;1.80;;;;;;;17.92;80.05;98587.62;4409031;32;20161;-77
2023/09/25 02:24:17;;;;;;;4.18;1.77;;;;;;;17.13;84.25;98587.34;4408807;32;20503;-77
2023/09/25 02:26:44;;;;;;;6.25;2.20;;;;;;;17.79;81.25;98587.56;4409273;32;20082;-77
2023/09/25 02:29:12;;;;;;;4.93;1.90;;;;;;;16.99;84.57;98583.78;4408981;32;20095;-77
2023/09/25 02:31:39;;;;;;;6.32;1.85;;;;;;;17.34;83.31;98589.50;4408532;32;20133;-77
2023/09/25 02:34:09;;;;;;;3.70;1.80;;;;;;;17.68;81.52;98589.16;4409025;32;20100;-77
2023/09/25 02:36:36;;;;;;;5.28;1.90;;;;;;;17.84;81.16;98575.03;4408928;32;20137;-77
2023/09/25 02:39:05;;;;;;;5.18;2.33;;;;;;;17.31;84.09;98581.81;4408601;32;20157;-77
2023/09/25 02:41:33;;;;;;;5.03;2.15;;;;;;;17.02;85.21;98581.03;4408975;32;20113;-77
2023/09/25 02:44:00;;;;;;;5.18;1.62;;;;;;;17.15;84.44;98590.69;4408915;32;20096;-77
2023/09/25 02:46:27;;;;;;;4.07;1.92;;;;;;;17.09;84.83;98581.47;4408715;32;20162;-77
2023/09/25 02:48:53;;;;;;;4.78;2.00;;;;;;;17.42;83.64;98582.94;4410867;32;20539;-77
2023/09/25 02:51:20;;;;;;;5.20;2.00;;;;;;;17.73;81.79;98580.12;4410735;32;20152;-77
2023/09/25 02:53:47;;;;;;;4.18;1.60;;;;;;;17.50;82.98;98581.53;4410649;32;20089;-77
2023/09/25 02:56:14;;;;;;;4.65;2.00;;;;;;;17.49;81.54;98585.06;4410856;32;20660;-77
2023/09/25 02:58:41;;;;;;;3.22;1.65;;;;;;;18.15;79.95;98578.28;4410774;32;20154;-77
2023/09/25 03:01:08;;;;;;;5.53;1.92;;;;;;;19.76;70.66;98579.47;4396849;32;20102;-77
2023/09/25 03:03:35;;;;;;;4.22;1.80;;;;;;;19.92;69.32;98584.47;4410749;32;20152;-77
2023/09/25 03:06:03;;;;;;;4.78;1.98;;;;;;;20.33;67.48;98584.06;4410712;32;20078;-77
2023/09/25 03:08:30;;;;;;;3.12;1.60;;;;;;;20.14;68.83;98584.56;4410922;32;20112;-77
2023/09/25 03:10:57;;;;;;;3.58;1.65;;;;;;;20.86;65.59;98594.97;4410820;32;20112;-77
2023/09/25 03:13:24;;;;;;;3.78;1.55;;;;;;;21.00;64.70;98592.09;4410215;32;20582;-77
2023/09/25 03:15:51;;;;;;;4.93;1.70;;;;;;;21.22;63.35;98590.44;4410728;32;20460;-77
2023/09/25 03:18:18;;;;;;;5.25;1.80;;;;;;;20.71;64.66;98594.31;4410829;32;20726;-77
2023/09/25 03:20:45;;;;;;;4.12;1.65;;;;;;;20.09;66.29;98589.28;4410407;32;20448;-77
2023/09/25 03:23:12;;;;;;;3.65;1.80;;;;;;;19.58;68.52;98609.59;4410334;32;20172;-77
2023/09/25 03:25:40;;;;;;;5.97;1.83;;;;;;;19.57;69.23;98605.31;4410615;32;20129;-77
2023/09/25 03:28:07;;;;;;;5.10;1.77;;;;;;;19.34;69.19;98612.94;4410347;32;20098;-77
2023/09/25 03:30:34;;;;;;;5.37;2.00;;;;;;;19.65;68.99;98619.50;4410693;32;20110;-77
2023/09/25 03:33:01;;;;;;;4.50;2.20;;;;;;;19.00;70.93;98618.81;4396861;32;20517;-77
2023/09/25 03:35:28;;;;;;;9.10;2.10;;;;;;;19.04;70.79;98626.38;4410205;32;20465;-77
2023/09/25 03:37:55;;;;;;;4.55;1.90;;;;;;;19.60;68.82;98628.66;4410579;32;20149;-77
2023/09/25 03:40:22;;;;;;;5.80;1.98;;;;;;;18.54;73.42;98629.72;4410603;32;20116;-77
2023/09/25 03:42:49;;;;;;;3.85;1.80;;;;;;;17.57;78.74;98636.78;4410225;32;20090;-77
2023/09/25 03:45:16;;;;;;;3.92;1.90;;;;;;;17.52;78.48;98646.66;4410573;32;20075;-77
2023/09/25 03:47:43;;;;;;;6.25;2.30;;;;;;;18.25;76.04;98642.06;4410407;32;20459;-77
2023/09/25 03:50:10;;;;;;;5.18;2.10;;;;;;;18.38;75.27;98647.31;4410157;32;20159;-77
2023/09/25 03:52:37;;;;;;;3.25;1.90;;;;;;;18.60;74.45;98644.97;4410371;32;20169;-77
2023/09/25 03:55:05;;;;;;;4.28;1.85;;;;;;;18.69;73.63;98647.03;4410426;32;20098;-77
2023/09/25 03:57:32;;;;;;;4.55;2.10;;;;;;;18.67;74.43;98643.69;4409864;32;20091;-77
2023/09/25 03:59:59;;;;;;;3.10;1.70;;;;;;;20.04;67.18;98643.81;4409863;32;20416;-77
2023/09/25 04:02:25;;;;;;;4.70;1.90;;;;;;;19.43;69.61;98649.88;4410036;32;20089;-77
2023/09/25 04:04:53;;;;;;;7.47;2.20;;;;;;;19.75;68.12;98658.13;4410261;32;20098;-77
2023/09/25 04:07:19;;;;;;;5.45;2.60;;;;;;;20.70;63.84;98658.19;4410554;32;20117;-77
2023/09/25 04:09:47;;;;;;;6.10;2.58;;;;;;;19.51;67.69;98658.06;4410138;32;20172;-77
2023/09/25 04:12:14;;;;;;;7.97;2.78;;;;;;;19.24;68.45;98664.22;4410271;32;20124;-77
2023/09/25 04:14:41;;;;;;;5.50;2.53;;;;;;;19.21;68.77;98677.53;4410433;32;20082;-77
2023/09/25 04:17:08;;;;;;;6.57;2.67;;;;;;;19.14;68.79;98676.28;4410041;32;20446;-77
2023/09/25 04:19:35;;;;;;;5.87;2.60;;;;;;;19.11;69.07;98681.69;4410464;32;20424;-77
2023/09/25 04:22:06;;;;;;;5.45;2.33;;;;;;;19.05;69.52;98684.75;4410068;32;20128;-77
2023/09/25 04:24:37;;;;;;;4.70;2.35;;;;;;;19.52;68.03;98693.75;4409913;32;20114;-77
2023/09/25 04:27:04;;;;;;;6.43;2.47;;;;;;;19.77;66.51;98701.59;4410308;32;20509;-77
2023/09/25 04:29:31;;;;;;;4.82;2.47;;;;;;;20.11;65.25;98704.47;4396576;32;20177;-77
2023/09/25 04:31:59;;;;;;;6.05;2.80;;;;;;;19.94;66.20;98703.88;4409739;32;20151;-77
2023/09/25 04:34:26;;;;;;;6.75;2.60;;;;;;;19.77;66.75;98695.50;4410100;32;20194;-77
2023/09/25 04:36:53;;;;;;;6.43;2.85;;;;;;;18.85;70.07;98695.69;4410355;32;20145;-77
2023/09/25 04:39:20;;;;;;;7.57;3.08;;;;;;;19.62;67.66;98694.81;4409928;32;20094;-77
2023/09/25 04:41:47;;;;;;;6.55;2.80;;;;;;;19.24;69.81;98687.75;4410177;32;20143;-77
2023/09/25 04:44:14;;;;;;;4.70;2.45;;;;;;;18.74;71.46;98688.56;4410043;32;20132;-77
2023/09/25 04:46:41;;;;;;;7.97;3.30;;;;;;;19.04;71.22;98691.75;4410011;32;20094;-77
2023/09/25 04:49:08;;;;;;;8.40;3.28;;;;;;;18.75;72.38;98695.47;4410115;32;20521;-77
2023/09/25 04:51:35;;;;;;;6.25;3.10;;;;;;;18.17;75.13;98707.00;4409695;32;20124;-77
2023/09/25 04:54:03;;;;;;;8.48;3.15;;;;;;;18.51;73.15;98705.72;4409878;32;20074;-77
2023/09/25 04:56:30;;;;;;;8.07;3.08;;;;;;;17.45;79.11;98702.78;4396525;32;20158;-77
2023/09/25 04:58:57;;;;;;;11.32;3.55;;;;;;;17.06;82.04;98707.63;4409848;32;20572;-77
2023/09/25 05:01:24;;;;;;;7.95;3.62;;;;;;;17.84;79.23;98705.56;4409955;32;20100;-77
2023/09/25 05:03:51;;;;;;;7.43;3.50;;;;;;;17.93;78.69;98714.59;4410006;32;20433;-77
2023/09/25 05:06:19;;;;;;;7.70;3.62;;;;;;;17.69;80.48;98709.12;4409893;32;20103;-77
2023/09/25 05:08:46;;;;;;;8.15;3.67;;;;;;;18.29;77.11;98705.37;4410063;32;20467;-77
2023/09/25 05:11:13;;;;;;;9.13;3.78;;;;;;;17.86;79.14;98705.47;4409465;32;20082;-77
2023/09/25 05:13:40;;;;;;;8.38;3.53;;;;;;;18.20;79.14;98706.81;4409489;32;20108;-77
2023/09/25 05:16:07;;;;;;;7.00;3.40;;;;;;;17.97;79.78;98712.63;4409957;32;20157;-77
2023/09/25 05:18:34;;;;;;;8.30;3.70;;;;;;;17.82;81.49;98712.66;4409896;32;20152;-77
2023/09/25 05:21:01;;;;;;;8.50;3.90;;;;;;;17.99;80.79;98710.78;4409535;32;20085;-77
2023/09/25 05:23:28;;;;;;;7.20;3.75;;;;;;;18.25;79.53;98711.75;4409479;32;20158;-77
2023/09/25 05:25:59;;;;;;;7.57;3.70;;;;;;;18.67;78.21;98706.41;4409688;32;20137;-77
2023/09/25 05:28:26;;;;;;;6.07;3.08;;;;;;;18.18;81.13;98722.59;4409533;32;20098;-77
2023/09/25 05:30:56;;;;;;;8.77;3.35;;;;;;;17.46;84.18;98726.16;4409873;32;20141;-77
2023/09/25 05:33:23;;;;;;;7.85;3.10;;;;;;;17.46;84.31;98725.31;4409726;32;20078;-77
2023/09/25 05:35:50;;;;;;;7.40;3.12;;;;;;;17.15;87.87;98721.91;4409714;32;20156;-77
2023/09/25 05:38:18;;;;;;;8.90;4.15;;;;;;;16.88;90.99;98720.91;4409749;32;20143;-77
2023/09/25 05:40:46;;;;;;;9.50;3.55;;;;;;;16.59;94.32;98717.31;4409353;32;20101;-77
2023/09/25 05:43:13;;;;;;;8.18;3.50;;;;;;;17.16;90.36;98715.75;4409579;32;20097;-77
2023/09/25 05:45:40;;;;;;;8.00;4.15;;;;;;;16.89;93.47;98717.34;4409492;32;20751;-77
2023/09/25 05:48:09;;;;;;;7.70;3.40;;;;;;;17.10;92.12;98715.28;4409314;32;20157;-77
2023/09/25 05:50:36;;;;;;;8.57;3.45;;;;;;;16.56;94.29;98709.66;4409531;32;20101;-77
2023/09/25 05:53:04;;;;;;;7.25;3.03;;;;;;;16.11;97.87;98722.56;4409372;32;20128;-78
2023/09/25 05:55:31;;;;;;;6.87;3.12;;;;;;;16.40;96.10;98733.16;4408864;32;20378;-78
2023/09/25 05:57:58;;;;;;;7.70;3.40;;;;;;;16.28;97.15;98726.84;4409340;32;20102;-77
2023/09/25 06:00:25;;;;;;;7.32;3.35;;;;;;;16.78;95.69;98724.03;4409277;32;20187;-78
2023/09/25 06:02:52;;;;;;;6.75;3.37;;;;;;;16.23;97.57;98733.22;4408857;32;20155;-78
2023/09/25 06:05:19;;;;;;;8.25;3.75;;;;;;;16.07;98.11;98733.22;4408967;32;20120;-79
2023/09/25 06:07:46;;;;;;;7.18;3.20;;;;;;;16.12;99.12;98733.81;4395780;32;20141;-78
2023/09/25 06:10:13;;;;;;;8.45;3.12;;;;;;;16.78;96.97;98734.44;4408576;32;20092;-78
2023/09/25 06:12:41;;;;;;;8.10;3.47;;;;;;;15.81;100.00;98748.47;4408692;32;20082;-77
2023/09/25 06:15:11;;;;;;;8.02;3.05;;;;;;;16.26;100.00;98735.66;4408911;32;20087;-77
2023/09/25 06:17:39;;;;;;;7.72;3.10;;;;;;;15.98;100.00;98737.16;4408781;32;20427;-78
2023/09/25 06:20:14;;;;;;;6.40;3.00;;;;;;;16.48;98.63;98729.19;4408989;32;20686;-78
2023/09/25 06:22:44;;;;;;;6.60;3.20;;;;;;;17.12;97.74;98736.88;4418117;32;20121;-79
2023/09/25 06:25:19;;;;;;;6.50;3.05;;;;;;;16.70;96.44;98736.69;4420759;32;20093;-79
2023/09/25 06:27:47;;;;;;;9.10;3.00;;;;;;;17.40;93.91;98736.09;4418524;32;20125;-80
2023/09/25 06:30:14;;;;;;;7.15;2.90;;;;;;;16.84;95.11;98738.50;4405999;32;20071;-79
2023/09/25 06:32:41;;;;;;;7.28;2.80;;;;;;;16.58;97.53;98739.91;4414709;32;20077;-78
2023/09/25 06:35:08;;;;;;;7.15;3.25;;;;;;;17.39;93.92;98737.88;4417821;32;20106;-80
2023/09/25 06:37:36;;;;;;;6.07;2.60;;;;;;;16.89;97.35;98746.03;4422036;32;20077;-81
2023/09/25 06:40:09;;;;;;;9.05;2.80;;;;;;;17.86;91.44;98749.84;4415503;32;20105;-81
2023/09/25 06:42:38;;;;;;;8.43;3.03;;;;;;;17.28;93.93;98748.09;4420869;32;20070;-81
2023/09/25 06:45:06;;;;;;;8.02;2.87;;;;;;;17.39;91.96;98744.84;4415677;32;20105;-79
2023/09/25 06:47:33;;;;;;;10.15;2.97;;;;;;;17.02;93.76;98742.66;4397261;32;20105;-79
2023/09/25 06:50:01;;;;;;;12.18;3.55;;;;;;;16.80;97.75;98759.59;4410957;32;20081;-79
2023/09/25 06:52:28;;;;;;;10.13;3.35;;;;;;;17.18;95.76;98755.62;4410523;32;20089;-79
2023/09/25 06:54:56;;;;;;;8.20;2.92;;;;;;;16.69;98.28;98758.44;4397213;32;20117;-79
2023/09/25 06:57:23;;;;;;;6.62;2.95;;;;;;;16.77;98.55;98764.03;4398802;32;20109;-80
2023/09/25 06:59:50;;;;;;;11.20;3.28;;;;;;;16.87;97.51;98750.50;4410777;32;20105;-79
2023/09/25 07:02:17;;;;;;;8.05;3.10;;;;;;;16.95;96.80;98756.13;4397709;32;20112;-80
2023/09/25 07:04:45;;;;;;;11.25;3.78;;;;;;;17.48;92.75;98766.03;4411717;32;20165;-79
2023/09/25 07:07:12;;;;;;;7.28;2.67;;;;;;;18.38;88.58;98765.72;4412275;32;20112;-81
2023/09/25 07:09:39;;;;;;;4.87;2.20;;;;;;;17.87;90.50;98767.22;4411603;32;20090;-79
2023/09/25 07:12:06;;;;;;;4.82;2.35;;;;;;;17.53;91.71;98758.75;4410147;32;20082;-78
2023/09/25 07:14:33;;;;;;;6.95;2.47;;;;;;;17.17;94.26;98766.97;4410323;32;20116;-79
2023/09/25 07:17:01;;;;;;;6.85;2.47;;;;;;;18.31;89.45;98769.69;4410690;32;20093;-79
2023/09/25 07:19:28;;;;;;;5.97;2.40;;;;;;;17.62;91.34;98768.63;4410095;32;20449;-80
2023/09/25 07:21:56;;;;;;;5.22;2.35;;;;;;;18.01;89.05;98769.81;4410298;32;20535;-81
2023/09/25 07:24:23;;;;;;;5.97;2.40;;;;;;;17.80;91.94;98777.19;4415266;32;20106;-80
2023/09/25 07:26:51;;;;;;;5.18;2.37;;;;;;;18.16;90.81;98778.44;4420307;32;20089;-81
2023/09/25 07:29:19;;;;;;;5.78;2.33;;;;;;;18.19;89.54;98786.97;4422409;32;20193;-81
2023/09/25 07:32:06;;;;;;;8.02;2.40;;;;;;;18.23;88.71;98792.81;4404826;32;20086;-81
2023/09/25 07:34:33;;;;;;;6.07;2.22;;;;;;;18.12;89.27;98797.88;4413702;32;20150;-81
2023/09/25 07:37:00;;;;;;;5.90;2.47;;;;;;;18.43;86.86;98802.03;4414680;32;20062;-81
2023/09/25 07:39:33;;;;;;;6.53;2.70;;;;;;;18.79;85.97;98806.72;4414522;32;20058;-81
2023/09/25 07:42:00;;;;;;;4.32;1.95;;;;;;;18.52;88.53;98805.84;4413924;32;20455;-80
2023/09/25 07:44:27;;;;;;;7.55;2.50;;;;;;;17.87;92.12;98796.75;4399440;32;20122;-81
2023/09/25 07:46:56;;;;;;;5.03;2.60;;;;;;;17.41;94.54;98790.78;4415218;32;20090;-80
2023/09/25 07:49:24;;;;;;;7.45;2.67;;;;;;;17.51;93.68;98799.75;4418873;32;20062;-80
2023/09/25 07:51:51;;;;;;;7.15;2.80;;;;;;;17.63;96.79;98806.00;4424018;32;20054;-81
2023/09/25 07:54:19;;;;;;;7.20;2.60;;;;;;;17.67;96.12;98796.25;4423727;32;20116;-80
2023/09/25 07:56:47;;;;;;;8.30;2.67;;;;;;;17.68;97.75;98808.38;4421399;32;20090;-82
2023/09/25 07:59:14;;;;;;;4.50;2.10;;;;;;;17.95;94.69;98813.72;4411622;32;20097;-77
2023/09/25 08:01:42;;;;;;;7.93;2.50;;;;;;;17.53;95.31;98802.25;4413418;32;20090;-80
2023/09/25 08:04:09;;;;;;;7.12;2.60;;;;;;;17.48;97.66;98806.94;4413169;32;20164;-75
2023/09/25 08:06:40;;;;;;;5.18;2.40;;;;;;;17.83;98.07;98810.06;4410336;32;20112;-78
2023/09/25 08:09:17;;;;;;;8.25;2.72;;;;;;;18.08;94.55;98810.28;4409911;32;20082;-78
2023/09/25 08:11:44;;;;;;;5.57;2.42;;;;;;;18.67;92.74;98818.81;4409981;32;20101;-78
2023/09/25 08:14:11;;;;;;;5.43;1.90;;;;;;;18.74;90.21;98817.47;4409982;32;20114;-79
2023/09/25 08:16:40;;;;;;;6.15;2.10;;;;;;;18.47;88.69;98806.13;4409835;32;20104;-79
2023/09/25 08:19:07;;;;;;;6.85;2.33;;;;;;;18.58;92.11;98811.50;4409946;32;20165;-80
2023/09/25 08:21:34;;;;;;;5.93;2.00;;;;;;;18.26;95.77;98794.41;4410376;32;20094;-78
2023/09/25 08:24:02;;;;;;;10.18;2.40;;;;;;;18.09;94.46;98782.41;4411913;32;20094;-78
2023/09/25 08:26:29;;;;;;;8.85;2.47;;;;;;;18.66;93.13;98793.59;4409791;32;20129;-78
2023/09/25 08:29:05;;;;;;;8.05;2.37;;;;;;;18.72;92.90;98800.22;4409731;32;20151;-79
2023/09/25 08:31:34;;;;;;;6.93;2.50;;;;;;;18.24;94.26;98804.09;4411246;32;20585;-79
2023/09/25 08:34:02;;;;;;;6.75;2.58;;;;;;;17.91;96.85;98798.25;4397658;32;20492;-81
2023/09/25 08:36:29;;;;;;;6.30;2.45;;;;;;;17.28;100.00;98776.78;4409357;32;20115;-81
2023/09/25 08:38:56;;;;;;;7.95;2.78;;;;;;;17.39;100.00;98792.66;4409705;32;20090;-81
2023/09/25 08:41:24;;;;;;;7.07;2.60;;;;;;;17.54;100.00;98801.34;4409665;32;20082;-80
2023/09/25 08:43:52;;;;;;;6.62;2.42;;;;;;;17.76;100.00;98806.19;4395408;32;20165;-80
2023/09/25 08:46:19;;;;;;;8.73;2.47;;;;;;;17.41;100.00;98803.81;4395721;32;20116;-79
2023/09/25 08:48:47;;;;;;;8.45;3.00;;;;;;;17.38;100.00;98793.59;4409712;32;20128;-80
2023/09/25 08:51:15;;;;;;;7.50;2.70;;;;;;;17.64;100.00;98792.88;4395820;32;20147;-80
2023/09/25 08:53:42;;;;;;;9.98;3.25;;;;;;;17.42;100.00;98802.06;4395800;32;20106;-80
2023/09/25 08:56:12;;;;;;;7.93;2.90;;;;;;;18.01;98.67;98805.53;4409514;32;20085;-80
2023/09/25 08:58:43;;;;;;;7.60;2.72;;;;;;;18.33;96.28;98809.59;4409440;32;20089;-81
2023/09/25 09:01:10;;;;;;;9.57;3.10;;;;;;;17.99;98.19;98803.00;4396306;32;20137;-81
2023/09/25 09:03:37;;;;;;;11.27;3.40;;;;;;;18.11;99.83;98796.19;4395823;32;20098;-80
2023/09/25 09:06:04;;;;;;;8.18;2.80;;;;;;;18.00;98.40;98796.84;4409171;32;20165;-80
2023/09/25 09:08:31;;;;;;;11.32;3.47;;;;;;;18.01;99.73;98803.75;4395892;32;20103;-80
2023/09/25 09:11:08;;;;;;;7.55;2.70;;;;;;;18.55;98.46;98810.88;4409202;32;20376;-80
2023/09/25 09:13:48;;;;;;;10.75;2.90;;;;;;;18.27;98.09;98806.53;4395800;32;20128;-80
2023/09/25 09:16:19;;;;;;;11.20;3.40;;;;;;;18.05;100.00;98809.63;4409535;32;20113;-80
2023/09/25 09:18:47;;;;;;;10.25;3.22;;;;;;;18.72;97.31;98813.28;4395418;32;20331;-80
2023/09/25 09:21:26;;;;;;;7.00;2.22;;;;;;;18.70;97.83;98815.97;4409346;32;20098;-80
2023/09/25 09:23:56;;;;;;;10.05;3.42;;;;;;;18.91;93.83;98813.78;4409186;32;20112;-80
2023/09/25 09:26:25;;;;;;;8.43;2.90;;;;;;;19.45;91.82;98818.09;4395708;32;20107;-80
2023/09/25 09:28:54;;;;;;;13.15;4.07;;;;;;;19.21;92.21;98820.56;4383395;32;20125;-80
2023/09/25 09:31:21;;;;;;;10.57;3.50;;;;;;;19.80;92.40;98823.62;4395379;32;20128;-80
2023/09/25 09:33:48;;;;;;;9.68;3.70;;;;;;;20.04;88.21;98818.47;4408711;32;20146;-80
2023/09/25 09:36:15;;;;;;;8.45;3.10;;;;;;;19.37;90.58;98823.88;4409352;32;20106;-80
2023/09/25 09:38:46;;;;;;;7.95;3.10;;;;;;;19.96;89.19;98823.41;4409215;32;20089;-80
2023/09/25 09:41:14;;;;;;;9.57;3.10;;;;;;;20.07;88.50;98823.50;4408810;32;20094;-80
2023/09/25 09:43:42;;;;;;;10.60;3.47;;;;;;;19.98;89.19;98829.38;4409172;32;20094;-80
2023/09/25 09:46:11;;;;;;;9.23;3.00;;;;;;;20.75;84.88;98839.66;4395305;32;20114;-81
2023/09/25 09:48:39;;;;;;;8.02;2.50;;;;;;;20.58;82.83;98834.75;4409041;32;20100;-80
2023/09/25 09:51:09;;;;;;;7.43;2.62;;;;;;;20.09;85.75;98826.84;4395536;32;20073;-80
2023/09/25 09:53:37;;;;;;;9.57;3.40;;;;;;;19.80;87.89;98828.88;4395044;32;20102;-81
2023/09/25 09:56:05;;;;;;;8.48;3.15;;;;;;;20.41;86.61;98845.56;4395460;32;20126;-81
2023/09/25 09:58:32;;;;;;;10.65;3.90;;;;;;;20.49;81.86;98844.13;4395392;32;20109;-81
2023/09/25 10:01:00;;;;;;;10.55;3.70;;;;;;;21.29;79.54;98854.97;4408752;32;20108;-80
2023/09/25 10:03:29;;;;;;;9.48;3.83;;;;;;;21.06;82.12;98858.44;4430463;27;20113;-80
2023/09/25 10:05:59;;;;;;;9.23;3.47;;;;;;;20.73;81.89;98854.62;4423023;32;20118;-80
2023/09/25 10:08:26;;;;;;;10.10;3.78;;;;;;;20.87;82.68;98851.03;4423828;32;20125;-80
2023/09/25 10:11:13;;;;;;;8.85;3.30;;;;;;;20.94;79.23;98839.12;4424098;32;20112;-80
2023/09/25 10:13:40;;;;;;;;;;;;;;;21.45;79.35;98859.91;4424214;32;20105;-80
2023/09/25 10:16:07;;;;;;;12.70;3.77;;;;;;;21.71;76.33;98852.72;4422691;32;20044;-80
2023/09/25 10:18:34;;;;;;;11.48;3.95;;;;;;;22.10;76.21;98855.91;4424200;32;20101;-79
2023/09/25 10:21:09;;;;;;;8.65;3.40;;;;;;;21.75;75.64;98846.28;4423966;32;20471;-79
2023/09/25 10:23:46;;;;;;;9.93;3.40;;;;;;;21.76;75.34;98847.12;4422953;32;20114;-78
2023/09/25 10:26:22;;;;;;;11.93;3.80;;;;;;;21.00;81.38;98862.31;4424121;32;20132;-79
2023/09/25 10:29:12;;;;;;;9.30;4.28;;;;;;;21.20;78.79;98857.41;4423625;32;20531;-79
2023/09/25 10:31:47;;;;;;;8.57;3.10;;;;;;;21.87;78.50;98860.28;4423937;32;20126;-79
2023/09/25 10:34:15;;;;;;;13.15;3.30;;;;;;;21.23;77.81;98858.00;4423912;32;20124;-79
2023/09/25 10:36:47;;;;;;;8.75;3.80;;;;;;;20.73;80.75;98854.62;4423455;32;20089;-79
2023/09/25 10:39:17;;;;;;;10.05;3.58;;;;;;;21.54;78.99;98850.53;4422857;32;20081;-79
2023/09/25 10:41:45;;;;;;;10.27;3.50;;;;;;;22.01;77.30;98851.31;4422493;32;20094;-79
2023/09/25 10:44:13;;;;;;;9.55;3.55;;;;;;;21.53;79.65;98844.44;4423372;32;20181;-79
2023/09/25 10:46:41;;;;;;;12.37;3.78;;;;;;;21.96;76.43;98856.94;4423886;32;20171;-79
2023/09/25 10:49:11;;;;;;;9.80;3.50;;;;;;;22.13;77.28;98858.31;4423806;32;20161;-79
2023/09/25 10:51:38;;;;;;;7.80;3.20;;;;;;;22.66;71.70;98864.63;4423710;32;20104;-79
2023/09/25 10:54:05;;;;;;;9.68;3.95;;;;;;;22.50;71.82;98854.47;4423561;32;20431;-78
2023/09/25 10:56:32;;;;;;;10.02;3.70;;;;;;;22.33;73.49;98859.38;4422128;32;20488;-78
2023/09/25 10:59:00;;;;;;;10.45;3.75;;;;;;;22.31;73.12;98858.66;4423386;32;20085;-78
2023/09/25 11:01:31;;;;;;;11.12;3.87;;;;;;;22.03;75.81;98857.31;4423551;32;20352;-78
2023/09/25 11:03:59;;;;;;;7.75;3.30;;;;;;;21.60;77.19;98850.91;4422868;32;20155;-78
2023/09/25 11:06:28;;;;;;;7.22;3.15;;;;;;;21.40;78.99;98848.09;4423566;32;20109;-79
2023/09/25 11:09:11;;;;;;;9.40;3.10;;;;;;;21.78;77.00;98837.31;4423994;32;20104;-78
2023/09/25 11:11:40;;;;;;;10.98;3.75;;;;;;;21.87;75.83;98837.47;4424144;32;20194;-78
2023/09/25 11:14:08;;;;;;;9.30;3.58;;;;;;;22.18;74.89;98840.38;4425450;32;20113;-80
2023/09/25 11:16:35;;;;;;;10.32;4.05;;;;;;;22.45;73.66;98842.66;4425446;32;20097;-80
2023/09/25 11:19:13;;;;;;;10.63;3.58;;;;;;;22.07;74.54;98835.13;4424136;32;20163;-82
2023/09/25 11:21:44;;;;;;;10.50;3.53;;;;;;;22.15;73.74;98823.06;4425378;32;20077;-77
2023/09/25 11:24:11;;;;;;;10.30;3.30;;;;;;;22.81;75.86;98837.09;4425466;32;20181;-80
2023/09/25 11:26:39;;;;;;;10.25;3.50;;;;;;;23.37;70.02;98823.75;4425183;32;20094;-80
2023/09/25 11:29:07;;;;;;;7.82;3.10;;;;;;;23.61;70.69;98820.09;4425649;32;20085;-81
2023/09/25 11:31:36;;;;;;;10.07;3.53;;;;;;;24.13;69.08;98824.38;4425156;32;20921;-80
2023/09/25 11:34:23;;;;;;;11.27;3.50;;;;;;;23.70;71.06;98814.03;4425473;32;20106;-81
2023/09/25 11:36:51;;;;;;;7.93;3.45;;;;;;;24.55;67.50;98816.34;4424146;32;20440;-80